createdAt,value
2023-05-14T00:00:58.642Z,0.00
2023-05-14T00:01:58.714Z,0.00
2023-05-14T00:02:58.794Z,0.00
2023-05-14T00:03:58.821Z,0.00
2023-05-14T00:04:58.604Z,0.00
2023-05-14T00:05:58.568Z,0.00
2023-05-14T00:06:58.560Z,0.00
2023-05-14T00:07:58.551Z,0.00
2023-05-14T00:08:58.536Z,0.00
2023-05-14T00:09:58.522Z,0.00
2023-05-14T00:10:58.507Z,0.00
2023-05-14T00:11:58.495Z,0.00
2023-05-14T00:12:58.481Z,0.00
2023-05-14T00:13:58.474Z,0.00
2023-05-14T00:14:58.458Z,0.00
2023-05-14T00:15:58.510Z,0.00
2023-05-14T00:16:58.428Z,0.00
2023-05-14T00:17:58.516Z,0.00
2023-05-14T00:18:58.454Z,0.00
2023-05-14T00:19:58.395Z,0.00
2023-05-14T00:20:58.482Z,0.00
2023-05-14T00:21:58.427Z,0.00
2023-05-14T00:22:58.384Z,0.00
2023-05-14T00:23:58.429Z,0.00
2023-05-14T00:24:58.388Z,0.00
2023-05-14T00:25:58.428Z,0.00
2023-05-14T00:26:58.404Z,0.00
2023-05-14T00:27:58.291Z,0.00
2023-05-14T00:28:58.278Z,0.00
2023-05-14T00:29:58.263Z,0.00
2023-05-14T00:30:58.280Z,0.00
2023-05-14T00:31:58.279Z,0.00
2023-05-14T00:32:58.309Z,0.00
2023-05-14T00:33:58.212Z,0.00
2023-05-14T00:34:58.199Z,0.00
2023-05-14T00:35:58.183Z,0.00
2023-05-14T00:36:58.170Z,0.00
2023-05-14T00:37:58.158Z,0.00
2023-05-14T00:38:58.146Z,0.00
2023-05-14T00:39:58.131Z,0.00
2023-05-14T00:40:58.146Z,0.00
2023-05-14T00:41:58.108Z,0.00
2023-05-14T00:42:58.101Z,0.00
2023-05-14T00:43:58.082Z,0.00
2023-05-14T00:44:58.071Z,0.00
2023-05-14T00:45:58.057Z,0.00
2023-05-14T00:46:58.062Z,0.00
2023-05-14T00:47:58.110Z,0.00
2023-05-14T00:48:58.021Z,0.00
2023-05-14T00:49:58.008Z,0.00
2023-05-14T00:50:58.001Z,0.00
2023-05-14T00:51:57.990Z,0.00
2023-05-14T00:52:57.972Z,0.00
2023-05-14T00:53:57.959Z,0.00
2023-05-14T00:54:57.949Z,0.00
2023-05-14T00:55:57.935Z,0.00
2023-05-14T00:56:57.922Z,0.00
2023-05-14T00:57:57.911Z,0.00
2023-05-14T00:58:57.897Z,0.00
2023-05-14T00:59:57.884Z,0.00
2023-05-14T01:00:57.909Z,0.00
2023-05-14T01:01:57.856Z,0.00
2023-05-14T01:02:57.950Z,0.00
2023-05-14T01:03:58.177Z,0.00
2023-05-14T01:04:57.820Z,0.00
2023-05-14T01:05:57.813Z,0.00
2023-05-14T01:06:57.794Z,0.00
2023-05-14T01:07:57.779Z,0.00
2023-05-14T01:08:57.774Z,0.00
2023-05-14T01:09:57.755Z,0.00
2023-05-14T01:10:57.743Z,0.00
2023-05-14T01:11:57.735Z,0.00
2023-05-14T01:12:57.720Z,0.00
2023-05-14T01:13:57.705Z,0.00
2023-05-14T01:14:57.696Z,0.00
2023-05-14T01:15:57.711Z,0.00
2023-05-14T01:16:57.714Z,0.00
2023-05-14T01:17:57.666Z,0.00
2023-05-14T01:18:57.725Z,0.00
2023-05-14T01:19:57.678Z,0.00
2023-05-14T01:20:57.611Z,0.00
2023-05-14T01:21:57.600Z,0.00
2023-05-14T01:22:57.582Z,0.00
2023-05-14T01:23:57.574Z,0.00
2023-05-14T01:24:57.559Z,0.00
2023-05-14T01:25:57.545Z,0.00
2023-05-14T01:26:57.548Z,0.00
2023-05-14T01:27:57.518Z,0.00
2023-05-14T01:28:57.503Z,0.00
2023-05-14T01:29:57.492Z,0.00
2023-05-14T01:30:57.477Z,0.00
2023-05-14T01:31:57.510Z,0.00
2023-05-14T01:32:57.480Z,0.00
2023-05-14T01:33:57.436Z,0.00
2023-05-14T01:34:57.424Z,0.00
2023-05-14T01:35:57.448Z,0.00
2023-05-14T01:36:57.404Z,0.00
2023-05-14T01:37:57.383Z,0.00
2023-05-14T01:38:57.369Z,0.00
2023-05-14T01:39:57.358Z,0.00
2023-05-14T01:40:57.352Z,0.00
2023-05-14T01:41:57.352Z,0.00
2023-05-14T01:42:57.366Z,0.00
2023-05-14T01:43:57.307Z,0.00
2023-05-14T01:44:57.294Z,0.00
2023-05-14T01:45:57.288Z,0.00
2023-05-14T01:46:57.257Z,0.00
2023-05-14T01:47:57.303Z,0.00
2023-05-14T01:48:57.235Z,0.00
2023-05-14T01:49:57.222Z,0.00
2023-05-14T01:50:57.232Z,0.00
2023-05-14T01:51:57.223Z,0.00
2023-05-14T01:52:57.203Z,0.00
2023-05-14T01:53:57.171Z,0.00
2023-05-14T01:54:57.156Z,0.00
2023-05-14T01:55:57.145Z,0.00
2023-05-14T01:56:57.138Z,0.00
2023-05-14T01:57:57.118Z,0.00
2023-05-14T01:58:57.098Z,0.00
2023-05-14T01:59:57.122Z,0.00
2023-05-14T02:00:57.073Z,0.00
2023-05-14T02:01:57.166Z,0.00
2023-05-14T02:02:57.089Z,0.00
2023-05-14T02:03:57.105Z,0.00
2023-05-14T02:04:57.021Z,0.00
2023-05-14T02:05:57.011Z,0.00
2023-05-14T02:06:56.996Z,0.00
2023-05-14T02:07:57.011Z,0.00
2023-05-14T02:08:56.976Z,0.00
2023-05-14T02:09:56.957Z,0.00
2023-05-14T02:10:56.942Z,0.00
2023-05-14T02:11:56.938Z,0.00
2023-05-14T02:12:56.918Z,0.00
2023-05-14T02:14:56.889Z,0.00
2023-05-14T02:15:56.913Z,0.00
2023-05-14T02:16:56.865Z,0.00
2023-05-14T02:17:56.889Z,0.00
2023-05-14T02:18:56.874Z,0.00
2023-05-14T02:19:56.831Z,0.00
2023-05-14T02:20:56.819Z,0.00
2023-05-14T02:21:56.803Z,0.00
2023-05-14T02:22:56.815Z,0.00
2023-05-14T02:23:56.804Z,0.00
2023-05-14T02:24:56.765Z,0.00
2023-05-14T02:25:56.760Z,0.00
2023-05-14T02:26:56.735Z,0.00
2023-05-14T02:27:56.718Z,0.00
2023-05-14T02:28:56.714Z,0.00
2023-05-14T02:29:56.701Z,0.00
2023-05-14T02:30:56.682Z,0.00
2023-05-14T02:31:56.998Z,0.00
2023-05-14T02:32:56.705Z,0.00
2023-05-14T02:33:56.643Z,0.00
2023-05-14T02:34:56.646Z,0.00
2023-05-14T02:35:56.623Z,0.00
2023-05-14T02:36:56.603Z,0.00
2023-05-14T02:37:56.601Z,0.00
2023-05-14T02:38:56.583Z,0.00
2023-05-14T02:39:56.612Z,0.00
2023-05-14T02:40:56.552Z,0.00
2023-05-14T02:41:56.537Z,0.00
2023-05-14T02:42:56.532Z,0.00
2023-05-14T02:43:56.511Z,0.00
2023-05-14T02:44:56.500Z,0.00
2023-05-14T02:45:56.488Z,0.00
2023-05-14T02:46:56.483Z,0.00
2023-05-14T02:47:56.554Z,0.00
2023-05-14T02:48:56.453Z,0.00
2023-05-14T02:49:56.432Z,0.00
2023-05-14T02:50:56.422Z,0.00
2023-05-14T02:51:56.405Z,0.00
2023-05-14T02:52:56.389Z,0.00
2023-05-14T02:53:56.374Z,0.00
2023-05-14T02:54:56.374Z,0.00
2023-05-14T02:55:56.381Z,0.00
2023-05-14T02:56:56.337Z,0.00
2023-05-14T02:57:56.327Z,0.00
2023-05-14T02:58:56.321Z,0.00
2023-05-14T03:00:56.312Z,0.00
2023-05-14T03:01:56.283Z,0.00
2023-05-14T03:02:56.380Z,0.00
2023-05-14T03:03:56.244Z,0.00
2023-05-14T03:04:56.232Z,0.00
2023-05-14T03:05:56.229Z,0.00
2023-05-14T03:06:56.204Z,0.00
2023-05-14T03:07:56.193Z,0.00
2023-05-14T03:08:56.177Z,0.00
2023-05-14T03:09:56.166Z,0.00
2023-05-14T03:10:56.152Z,0.00
2023-05-14T03:11:56.166Z,0.00
2023-05-14T03:12:56.150Z,0.00
2023-05-14T03:13:56.116Z,0.00
2023-05-14T03:14:56.102Z,0.00
2023-05-14T03:15:56.088Z,0.00
2023-05-14T03:16:56.099Z,0.00
2023-05-14T03:17:56.085Z,0.00
2023-05-14T03:18:56.128Z,0.00
2023-05-14T03:19:56.039Z,0.00
2023-05-14T03:20:56.018Z,0.00
2023-05-14T03:21:56.006Z,0.00
2023-05-14T03:22:55.995Z,0.00
2023-05-14T03:23:55.992Z,0.00
2023-05-14T03:24:55.968Z,0.00
2023-05-14T03:25:55.959Z,0.00
2023-05-14T03:26:55.934Z,0.00
2023-05-14T03:27:55.952Z,0.00
2023-05-14T03:28:55.930Z,0.00
2023-05-14T03:29:55.897Z,0.00
2023-05-14T03:30:55.906Z,0.00
2023-05-14T03:31:55.876Z,0.00
2023-05-14T03:32:55.917Z,0.00
2023-05-14T03:33:55.846Z,0.00
2023-05-14T03:34:55.830Z,0.00
2023-05-14T03:35:55.823Z,0.00
2023-05-14T03:36:55.807Z,0.00
2023-05-14T03:37:55.791Z,0.00
2023-05-14T03:38:55.775Z,0.00
2023-05-14T03:39:55.762Z,0.00
2023-05-14T03:40:55.755Z,0.01
2023-05-14T03:41:55.741Z,0.01
2023-05-14T03:42:55.728Z,0.01
2023-05-14T03:43:55.740Z,0.01
2023-05-14T03:44:55.709Z,0.01
2023-05-14T03:45:55.687Z,0.01
2023-05-14T03:46:55.672Z,0.01
2023-05-14T03:47:55.698Z,0.01
2023-05-14T03:48:55.683Z,0.01
2023-05-14T03:49:55.631Z,0.02
2023-05-14T03:50:55.621Z,0.02
2023-05-14T03:51:55.603Z,0.02
2023-05-14T03:52:55.590Z,0.02
2023-05-14T03:53:55.581Z,0.02
2023-05-14T03:54:55.571Z,0.02
2023-05-14T03:55:55.550Z,0.03
2023-05-14T03:56:55.540Z,0.03
2023-05-14T03:57:55.550Z,0.03
2023-05-14T03:58:55.517Z,0.03
2023-05-14T03:59:55.524Z,0.03
2023-05-14T04:00:55.484Z,0.03
2023-05-14T04:01:55.477Z,0.05
2023-05-14T04:02:55.501Z,0.05
2023-05-14T04:03:55.643Z,0.05
2023-05-14T04:04:55.509Z,0.05
2023-05-14T04:05:55.416Z,0.05
2023-05-14T04:06:55.405Z,0.05
2023-05-14T04:07:55.399Z,0.06
2023-05-14T04:08:55.399Z,0.06
2023-05-14T04:09:55.368Z,0.06
2023-05-14T04:10:55.356Z,0.06
2023-05-14T04:11:55.344Z,0.07
2023-05-14T04:12:55.330Z,0.07
2023-05-14T04:13:55.314Z,0.07
2023-05-14T04:14:55.303Z,0.07
2023-05-14T04:15:55.338Z,0.07
2023-05-14T04:16:55.279Z,0.08
2023-05-14T04:17:55.309Z,0.08
2023-05-14T04:18:55.310Z,0.08
2023-05-14T04:19:55.244Z,0.08
2023-05-14T04:20:55.222Z,0.08
2023-05-14T04:21:55.210Z,0.08
2023-05-14T04:22:55.201Z,0.10
2023-05-14T04:23:55.182Z,0.10
2023-05-14T04:24:55.173Z,0.10
2023-05-14T04:25:55.159Z,0.10
2023-05-14T04:26:55.142Z,0.10
2023-05-14T04:27:55.137Z,0.11
2023-05-14T04:28:55.114Z,0.11
2023-05-14T04:29:55.107Z,0.11
2023-05-14T04:30:55.089Z,0.12
2023-05-14T04:31:55.116Z,0.13
2023-05-14T04:32:55.123Z,0.15
2023-05-14T04:33:55.050Z,0.16
2023-05-14T04:34:55.033Z,0.16
2023-05-14T04:35:55.024Z,0.17
2023-05-14T04:36:55.012Z,0.17
2023-05-14T04:37:55.000Z,0.18
2023-05-14T04:38:54.978Z,0.17
2023-05-14T04:39:54.965Z,0.18
2023-05-14T04:40:54.959Z,0.18
2023-05-14T04:41:54.948Z,0.18
2023-05-14T04:42:54.939Z,0.20
2023-05-14T04:43:54.913Z,0.20
2023-05-14T04:44:54.897Z,0.20
2023-05-14T04:45:54.913Z,0.20
2023-05-14T04:46:54.870Z,0.21
2023-05-14T04:47:54.912Z,0.21
2023-05-14T04:48:54.851Z,0.21
2023-05-14T04:49:54.836Z,0.22
2023-05-14T04:50:54.834Z,0.24
2023-05-14T04:51:54.806Z,0.25
2023-05-14T04:52:54.791Z,0.26
2023-05-14T04:53:54.784Z,0.27
2023-05-14T04:54:54.766Z,0.30
2023-05-14T04:55:54.754Z,0.30
2023-05-14T04:56:54.741Z,0.31
2023-05-14T04:57:54.727Z,0.32
2023-05-14T04:58:54.717Z,0.31
2023-05-14T04:59:54.704Z,0.32
2023-05-14T05:00:54.721Z,0.32
2023-05-14T05:01:54.678Z,0.34
2023-05-14T05:02:54.694Z,0.34
2023-05-14T05:03:54.732Z,0.35
2023-05-14T05:04:54.639Z,0.36
2023-05-14T05:05:54.634Z,0.37
2023-05-14T05:06:54.618Z,0.37
2023-05-14T05:07:54.610Z,0.39
2023-05-14T05:08:54.585Z,0.40
2023-05-14T05:09:54.578Z,0.41
2023-05-14T05:10:54.563Z,0.41
2023-05-14T05:11:54.553Z,0.39
2023-05-14T05:12:54.568Z,0.37
2023-05-14T05:13:54.527Z,0.37
2023-05-14T05:14:54.514Z,0.36
2023-05-14T05:15:54.523Z,0.36
2023-05-14T05:16:54.502Z,0.36
2023-05-14T05:17:54.498Z,0.36
2023-05-14T05:18:54.558Z,0.37
2023-05-14T05:19:54.478Z,0.39
2023-05-14T05:20:54.437Z,0.39
2023-05-14T05:21:54.423Z,0.39
2023-05-14T05:22:54.413Z,0.37
2023-05-14T05:23:54.403Z,0.39
2023-05-14T05:24:54.417Z,0.39
2023-05-14T05:25:54.374Z,0.41
2023-05-14T05:26:54.375Z,0.44
2023-05-14T05:27:54.348Z,0.48
2023-05-14T05:28:54.340Z,0.51
2023-05-14T05:29:54.321Z,0.54
2023-05-14T05:30:54.343Z,0.56
2023-05-14T05:31:54.355Z,0.56
2023-05-14T05:32:54.339Z,0.56
2023-05-14T05:33:54.277Z,0.56
2023-05-14T05:34:54.257Z,0.56
2023-05-14T05:35:54.269Z,0.56
2023-05-14T05:36:54.227Z,0.56
2023-05-14T05:37:54.215Z,0.54
2023-05-14T05:38:54.204Z,0.50
2023-05-14T05:39:54.201Z,0.50
2023-05-14T05:40:54.179Z,0.49
2023-05-14T05:41:54.172Z,0.50
2023-05-14T05:42:54.172Z,0.53
2023-05-14T05:43:54.140Z,0.55
2023-05-14T05:44:54.124Z,0.59
2023-05-14T05:45:54.113Z,0.59
2023-05-14T05:46:54.170Z,0.60
2023-05-14T05:47:54.111Z,0.63
2023-05-14T05:48:54.071Z,0.65
2023-05-14T05:49:54.078Z,0.62
2023-05-14T05:50:54.045Z,0.54
2023-05-14T05:51:54.058Z,0.50
2023-05-14T05:52:54.016Z,0.59
2023-05-14T05:53:54.005Z,0.54
2023-05-14T05:54:53.993Z,0.56
2023-05-14T05:55:53.979Z,0.51
2023-05-14T05:56:53.989Z,0.58
2023-05-14T05:57:53.974Z,0.72
2023-05-14T05:58:53.956Z,0.86
2023-05-14T05:59:53.942Z,0.73
2023-05-14T06:00:53.922Z,0.75
2023-05-14T06:01:53.924Z,0.86
2023-05-14T06:02:53.993Z,0.88
2023-05-14T06:03:53.880Z,0.88
2023-05-14T06:04:53.903Z,0.79
2023-05-14T06:05:53.918Z,0.77
2023-05-14T06:06:53.854Z,0.78
2023-05-14T06:07:53.871Z,0.77
2023-05-14T06:08:53.812Z,0.83
2023-05-14T06:09:53.800Z,0.93
2023-05-14T06:10:53.785Z,1.12
2023-05-14T06:11:53.773Z,0.97
2023-05-14T06:12:53.760Z,1.24
2023-05-14T06:13:53.758Z,1.21
2023-05-14T06:14:53.736Z,1.01
2023-05-14T06:15:53.717Z,1.26
2023-05-14T06:16:53.792Z,1.43
2023-05-14T06:17:53.751Z,1.36
2023-05-14T06:18:53.737Z,1.37
2023-05-14T06:19:53.676Z,1.34
2023-05-14T06:20:53.671Z,1.25
2023-05-14T06:21:53.663Z,1.21
2023-05-14T06:22:53.639Z,1.15
2023-05-14T06:23:53.648Z,1.07
2023-05-14T06:24:53.626Z,1.05
2023-05-14T06:25:53.600Z,1.07
2023-05-14T06:26:53.581Z,1.11
2023-05-14T06:27:53.566Z,1.18
2023-05-14T06:28:53.558Z,1.30
2023-05-14T06:29:53.557Z,1.44
2023-05-14T06:30:53.529Z,1.51
2023-05-14T06:31:53.582Z,1.56
2023-05-14T06:32:53.563Z,1.49
2023-05-14T06:33:53.491Z,1.37
2023-05-14T06:34:53.475Z,1.29
2023-05-14T06:35:53.461Z,1.21
2023-05-14T06:36:53.457Z,1.20
2023-05-14T06:37:53.441Z,1.36
2023-05-14T06:38:53.423Z,1.44
2023-05-14T06:39:54.377Z,1.51
2023-05-14T06:40:53.396Z,1.60
2023-05-14T06:41:53.379Z,1.65
2023-05-14T06:42:53.368Z,1.65
2023-05-14T06:43:53.365Z,1.72
2023-05-14T06:44:53.344Z,1.79
2023-05-14T06:45:53.333Z,2.12
2023-05-14T06:46:53.325Z,2.86
2023-05-14T06:47:53.442Z,2.74
2023-05-14T06:48:53.348Z,2.44
2023-05-14T06:49:53.276Z,1.40
2023-05-14T06:50:53.268Z,0.93
2023-05-14T06:51:53.251Z,0.86
2023-05-14T06:52:53.240Z,0.88
2023-05-14T06:53:53.224Z,1.01
2023-05-14T06:54:53.214Z,1.12
2023-05-14T06:55:53.233Z,1.21
2023-05-14T06:56:53.189Z,1.25
2023-05-14T06:57:53.182Z,1.35
2023-05-14T06:58:53.169Z,1.63
2023-05-14T06:59:53.147Z,1.67
2023-05-14T07:00:53.134Z,1.92
2023-05-14T07:01:53.193Z,2.88
2023-05-14T07:02:53.136Z,2.77
2023-05-14T07:03:53.102Z,2.80
2023-05-14T07:04:53.083Z,2.98
2023-05-14T07:05:53.073Z,2.36
2023-05-14T07:06:53.060Z,2.64
2023-05-14T07:07:53.045Z,2.84
2023-05-14T07:08:53.030Z,2.20
2023-05-14T07:09:53.026Z,2.26
2023-05-14T07:10:53.012Z,2.75
2023-05-14T07:11:53.018Z,2.56
2023-05-14T07:12:52.979Z,2.93
2023-05-14T07:13:52.972Z,2.72
2023-05-14T07:14:52.958Z,2.74
2023-05-14T07:15:52.941Z,2.98
2023-05-14T07:16:52.962Z,2.50
2023-05-14T07:17:52.983Z,2.41
2023-05-14T07:18:53.006Z,2.70
2023-05-14T07:19:52.894Z,2.41
2023-05-14T07:20:52.892Z,2.22
2023-05-14T07:21:52.861Z,2.17
2023-05-14T07:22:52.855Z,2.20
2023-05-14T07:23:52.836Z,2.16
2023-05-14T07:24:52.822Z,2.12
2023-05-14T07:25:52.804Z,2.13
2023-05-14T07:26:52.800Z,2.18
2023-05-14T07:27:52.824Z,2.25
2023-05-14T07:28:52.784Z,2.35
2023-05-14T07:29:52.758Z,3.12
2023-05-14T07:30:52.793Z,2.51
2023-05-14T07:31:52.769Z,2.70
2023-05-14T07:32:52.764Z,2.93
2023-05-14T07:33:52.702Z,2.51
2023-05-14T07:34:52.692Z,2.35
2023-05-14T07:35:52.680Z,2.30
2023-05-14T07:36:52.672Z,2.26
2023-05-14T07:37:52.652Z,2.31
2023-05-14T07:38:52.636Z,2.27
2023-05-14T07:39:52.642Z,2.32
2023-05-14T07:40:52.617Z,3.26
2023-05-14T07:41:52.604Z,2.94
2023-05-14T07:42:52.589Z,2.54
2023-05-14T07:43:52.729Z,2.60
2023-05-14T07:44:52.563Z,2.69
2023-05-14T07:45:52.550Z,2.73
2023-05-14T07:46:52.553Z,2.63
2023-05-14T07:47:52.767Z,4.49
2023-05-14T07:48:52.512Z,3.72
2023-05-14T07:49:52.502Z,2.97
2023-05-14T07:50:52.486Z,2.94
2023-05-14T07:51:52.471Z,3.54
2023-05-14T07:52:52.459Z,3.40
2023-05-14T07:53:52.443Z,3.82
2023-05-14T07:54:52.486Z,3.77
2023-05-14T07:55:52.446Z,3.83
2023-05-14T07:56:52.412Z,4.36
2023-05-14T07:57:52.390Z,6.15
2023-05-14T07:58:52.382Z,7.18
2023-05-14T07:59:52.386Z,7.27
2023-05-14T08:00:52.361Z,5.98
2023-05-14T08:01:52.465Z,6.55
2023-05-14T08:02:52.662Z,4.91
2023-05-14T08:03:52.473Z,5.48
2023-05-14T08:04:52.393Z,4.17
2023-05-14T08:05:52.329Z,3.64
2023-05-14T08:06:52.293Z,4.20
2023-05-14T08:07:52.267Z,4.50
2023-05-14T08:08:52.256Z,5.96
2023-05-14T08:09:52.253Z,5.23
2023-05-14T08:10:52.270Z,7.41
2023-05-14T08:11:52.217Z,7.21
2023-05-14T08:12:52.222Z,6.97
2023-05-14T08:13:52.200Z,6.89
2023-05-14T08:14:52.187Z,6.44
2023-05-14T08:15:52.194Z,6.20
2023-05-14T08:16:52.198Z,7.12
2023-05-14T08:17:52.179Z,6.96
2023-05-14T08:18:52.178Z,7.25
2023-05-14T08:19:52.121Z,6.45
2023-05-14T08:20:52.120Z,6.88
2023-05-14T08:21:52.094Z,7.23
2023-05-14T08:22:52.089Z,6.65
2023-05-14T08:23:52.082Z,6.68
2023-05-14T08:24:52.066Z,5.48
2023-05-14T08:25:52.059Z,6.77
2023-05-14T08:26:52.044Z,6.35
2023-05-14T08:27:52.023Z,6.48
2023-05-14T08:28:52.014Z,6.31
2023-05-14T08:29:52.004Z,6.04
2023-05-14T08:30:52.021Z,5.87
2023-05-14T08:31:52.012Z,5.59
2023-05-14T08:32:51.991Z,5.63
2023-05-14T08:33:51.954Z,5.78
2023-05-14T08:34:52.132Z,5.98
2023-05-14T08:35:51.929Z,6.25
2023-05-14T08:36:51.918Z,6.53
2023-05-14T08:37:51.904Z,6.88
2023-05-14T08:38:51.895Z,7.17
2023-05-14T08:39:51.888Z,7.37
2023-05-14T08:40:51.869Z,7.51
2023-05-14T08:41:51.861Z,7.51
2023-05-14T08:42:51.873Z,7.46
2023-05-14T08:43:51.830Z,7.25
2023-05-14T08:44:51.822Z,7.02
2023-05-14T08:45:51.803Z,6.88
2023-05-14T08:46:51.794Z,6.82
2023-05-14T08:47:51.910Z,6.73
2023-05-14T08:48:51.777Z,6.68
2023-05-14T08:49:51.756Z,6.61
2023-05-14T08:50:51.760Z,6.58
2023-05-14T08:51:51.728Z,6.51
2023-05-14T08:52:51.725Z,6.34
2023-05-14T08:53:51.703Z,6.26
2023-05-14T08:54:51.692Z,6.50
2023-05-14T08:55:51.677Z,7.23
2023-05-14T08:56:51.985Z,7.79
2023-05-14T08:57:51.657Z,7.77
2023-05-14T08:58:51.641Z,7.35
2023-05-14T08:59:51.628Z,7.06
2023-05-14T09:00:51.614Z,7.17
2023-05-14T09:01:51.694Z,7.45
2023-05-14T09:02:51.806Z,7.61
2023-05-14T09:03:51.616Z,7.65
2023-05-14T09:04:51.573Z,7.59
2023-05-14T09:05:51.553Z,7.44
2023-05-14T09:06:51.542Z,7.36
2023-05-14T09:07:51.547Z,7.39
2023-05-14T09:08:51.518Z,7.45
2023-05-14T09:09:51.505Z,6.98
2023-05-14T09:10:51.517Z,7.36
2023-05-14T09:11:51.488Z,7.23
2023-05-14T09:12:51.470Z,7.20
2023-05-14T09:13:51.457Z,7.10
2023-05-14T09:14:51.449Z,6.98
2023-05-14T09:15:51.502Z,6.97
2023-05-14T09:16:51.528Z,6.83
2023-05-14T09:17:51.509Z,6.88
2023-05-14T09:18:51.445Z,6.96
2023-05-14T09:19:51.469Z,6.78
2023-05-14T09:20:51.379Z,6.74
2023-05-14T09:21:51.369Z,6.83
2023-05-14T09:22:51.349Z,7.23
2023-05-14T09:23:51.336Z,7.37
2023-05-14T09:24:51.325Z,7.49
2023-05-14T09:25:51.312Z,7.50
2023-05-14T09:26:51.299Z,7.50
2023-05-14T09:27:51.300Z,7.35
2023-05-14T09:28:51.276Z,7.03
2023-05-14T09:29:51.261Z,7.17
2023-05-14T09:30:51.263Z,6.99
2023-05-14T09:31:51.264Z,6.99
2023-05-14T09:32:51.246Z,7.06
2023-05-14T09:33:51.217Z,7.39
2023-05-14T09:34:51.203Z,5.91
2023-05-14T09:35:51.215Z,6.91
2023-05-14T09:36:51.182Z,6.91
2023-05-14T09:37:51.182Z,6.69
2023-05-14T09:38:51.164Z,6.40
2023-05-14T09:39:51.162Z,6.65
2023-05-14T09:40:51.130Z,6.23
2023-05-14T09:41:51.118Z,7.16
2023-05-14T09:42:51.112Z,6.44
2023-05-14T09:43:51.106Z,7.31
2023-05-14T09:44:51.083Z,8.08
2023-05-14T09:45:51.080Z,8.12
2023-05-14T09:46:51.104Z,8.08
2023-05-14T09:47:51.212Z,8.21
2023-05-14T09:48:51.038Z,4.94
2023-05-14T09:49:51.021Z,7.46
2023-05-14T09:50:51.010Z,7.15
2023-05-14T09:51:51.047Z,6.74
2023-05-14T09:52:50.988Z,6.45
2023-05-14T09:53:50.976Z,6.32
2023-05-14T09:54:50.963Z,6.46
2023-05-14T09:55:50.948Z,6.44
2023-05-14T09:56:50.967Z,6.36
2023-05-14T09:57:50.928Z,7.12
2023-05-14T09:58:50.912Z,7.22
2023-05-14T09:59:50.905Z,3.29
2023-05-14T10:00:50.955Z,3.37
2023-05-14T10:01:50.883Z,5.77
2023-05-14T10:02:50.869Z,8.60
2023-05-14T10:03:50.856Z,8.56
2023-05-14T10:04:50.957Z,7.08
2023-05-14T10:05:50.830Z,8.85
2023-05-14T10:06:50.818Z,4.59
2023-05-14T10:07:50.838Z,5.64
2023-05-14T10:08:50.790Z,6.93
2023-05-14T10:10:50.768Z,8.11
2023-05-14T10:11:50.758Z,8.30
2023-05-14T10:12:50.749Z,4.89
2023-05-14T10:13:50.736Z,8.28
2023-05-14T10:14:50.719Z,6.03
2023-05-14T10:15:50.713Z,3.61
2023-05-14T10:16:50.899Z,6.13
2023-05-14T10:17:50.717Z,3.59
2023-05-14T10:18:50.753Z,3.98
2023-05-14T10:19:50.664Z,2.88
2023-05-14T10:20:50.653Z,2.98
2023-05-14T10:21:50.636Z,3.58
2023-05-14T10:22:50.626Z,3.26
2023-05-14T10:23:50.631Z,4.42
2023-05-14T10:24:50.597Z,8.82
2023-05-14T10:25:50.590Z,4.21
2023-05-14T10:26:50.573Z,8.74
2023-05-14T10:27:50.571Z,4.79
2023-05-14T10:28:50.555Z,4.34
2023-05-14T10:29:50.540Z,4.23
2023-05-14T10:30:50.571Z,4.68
2023-05-14T10:31:50.536Z,8.13
2023-05-14T10:32:50.569Z,7.31
2023-05-14T10:33:50.560Z,5.61
2023-05-14T10:34:50.473Z,5.07
2023-05-14T10:35:50.461Z,6.66
2023-05-14T10:36:50.448Z,6.25
2023-05-14T10:37:50.438Z,5.56
2023-05-14T10:38:50.423Z,5.77
2023-05-14T10:39:50.435Z,5.59
2023-05-14T10:40:53.568Z,5.74
2023-05-14T10:41:50.386Z,4.03
2023-05-14T10:42:50.376Z,3.18
2023-05-14T10:43:50.364Z,3.07
2023-05-14T10:44:50.348Z,2.99
2023-05-14T10:45:50.340Z,2.91
2023-05-14T10:46:50.349Z,2.93
2023-05-14T10:47:50.335Z,3.34
2023-05-14T10:48:50.313Z,2.84
2023-05-14T10:49:50.289Z,2.79
2023-05-14T10:50:50.326Z,3.89
2023-05-14T10:51:50.278Z,3.68
2023-05-14T10:52:50.249Z,3.74
2023-05-14T10:53:50.237Z,8.32
2023-05-14T10:54:50.225Z,8.39
2023-05-14T10:55:50.242Z,8.40
2023-05-14T10:56:50.212Z,8.51
2023-05-14T10:57:50.191Z,3.39
2023-05-14T10:58:50.190Z,8.75
2023-05-14T10:59:50.168Z,5.72
2023-05-14T11:00:50.152Z,5.32
2023-05-14T11:01:50.167Z,8.46
2023-05-14T11:02:50.174Z,8.61
2023-05-14T11:03:50.180Z,3.46
2023-05-14T11:04:50.107Z,3.16
2023-05-14T11:05:50.097Z,2.99
2023-05-14T11:06:50.081Z,2.92
2023-05-14T11:07:50.097Z,2.63
2023-05-14T11:08:50.066Z,2.37
2023-05-14T11:09:50.046Z,2.20
2023-05-14T11:10:50.034Z,2.06
2023-05-14T11:11:50.049Z,1.94
2023-05-14T11:12:50.009Z,1.87
2023-05-14T11:13:50.002Z,1.84
2023-05-14T11:14:49.981Z,1.83
2023-05-14T11:15:49.971Z,1.84
2023-05-14T11:16:50.038Z,1.82
2023-05-14T11:17:49.973Z,1.82
2023-05-14T11:18:49.966Z,1.80
2023-05-14T11:19:51.230Z,1.79
2023-05-14T11:20:49.906Z,1.78
2023-05-14T11:21:49.918Z,1.74
2023-05-14T11:22:49.883Z,1.69
2023-05-14T11:23:49.871Z,1.64
2023-05-14T11:24:49.864Z,1.62
2023-05-14T11:25:49.886Z,1.64
2023-05-14T11:26:49.834Z,1.68
2023-05-14T11:27:49.855Z,1.75
2023-05-14T11:28:49.806Z,1.92
2023-05-14T11:29:49.798Z,2.21
2023-05-14T11:30:49.785Z,2.54
2023-05-14T11:31:49.843Z,6.73
2023-05-14T11:32:49.775Z,7.12
2023-05-14T11:33:49.747Z,6.93
2023-05-14T11:34:49.735Z,5.36
2023-05-14T11:35:49.731Z,6.17
2023-05-14T11:36:49.711Z,7.28
2023-05-14T11:37:49.704Z,7.46
2023-05-14T11:38:49.694Z,7.70
2023-05-14T11:39:49.682Z,7.88
2023-05-14T11:40:49.664Z,7.92
2023-05-14T11:41:49.647Z,7.73
2023-05-14T11:42:49.633Z,7.51
2023-05-14T11:43:49.653Z,6.78
2023-05-14T11:44:49.615Z,7.80
2023-05-14T11:45:49.620Z,7.23
2023-05-14T11:46:49.582Z,6.72
2023-05-14T11:47:49.639Z,7.49
2023-05-14T11:48:49.584Z,7.65
2023-05-14T11:49:49.564Z,7.66
2023-05-14T11:50:49.538Z,7.69
2023-05-14T11:51:49.544Z,7.94
2023-05-14T11:52:49.515Z,7.61
2023-05-14T11:53:49.526Z,7.55
2023-05-14T11:54:49.498Z,5.42
2023-05-14T11:55:49.478Z,7.49
2023-05-14T11:56:49.464Z,7.41
2023-05-14T11:57:49.453Z,7.44
2023-05-14T11:58:49.449Z,7.41
2023-05-14T11:59:49.452Z,7.39
2023-05-14T12:00:49.416Z,7.41
2023-05-14T12:01:50.751Z,7.66
2023-05-14T12:02:49.492Z,7.84
2023-05-14T12:03:49.485Z,7.65
2023-05-14T12:04:49.450Z,6.27
2023-05-14T12:05:49.355Z,7.34
2023-05-14T12:06:49.342Z,7.22
2023-05-14T12:07:49.330Z,4.74
2023-05-14T12:08:49.322Z,3.84
2023-05-14T12:09:49.422Z,2.36
2023-05-14T12:10:49.296Z,2.25
2023-05-14T12:11:49.282Z,2.17
2023-05-14T12:12:49.271Z,2.16
2023-05-14T12:13:49.261Z,6.73
2023-05-14T12:14:49.251Z,6.98
2023-05-14T12:15:49.315Z,6.97
2023-05-14T12:16:49.223Z,6.89
2023-05-14T12:17:49.234Z,6.80
2023-05-14T12:18:49.241Z,6.45
2023-05-14T12:19:49.202Z,6.60
2023-05-14T12:20:49.179Z,6.98
2023-05-14T12:21:49.163Z,7.03
2023-05-14T12:22:49.158Z,7.23
2023-05-14T12:23:49.137Z,7.27
2023-05-14T12:24:49.126Z,2.56
2023-05-14T12:25:49.111Z,7.03
2023-05-14T12:26:49.103Z,7.01
2023-05-14T12:27:49.092Z,6.85
2023-05-14T12:28:49.109Z,6.77
2023-05-14T12:29:49.067Z,6.74
2023-05-14T12:30:49.055Z,6.69
2023-05-14T12:31:49.186Z,6.53
2023-05-14T12:32:49.204Z,6.68
2023-05-14T12:33:49.018Z,6.69
2023-05-14T12:34:49.008Z,6.74
2023-05-14T12:35:48.995Z,6.61
2023-05-14T12:36:48.983Z,6.39
2023-05-14T12:37:48.972Z,6.58
2023-05-14T12:38:48.966Z,6.77
2023-05-14T12:39:48.946Z,6.66
2023-05-14T12:40:48.939Z,6.77
2023-05-14T12:41:48.934Z,6.39
2023-05-14T12:42:48.919Z,6.55
2023-05-14T12:43:48.912Z,6.27
2023-05-14T12:44:48.885Z,6.34
2023-05-14T12:45:48.883Z,6.37
2023-05-14T12:46:48.951Z,5.82
2023-05-14T12:47:48.913Z,5.58
2023-05-14T12:48:51.127Z,5.96
2023-05-14T12:49:48.830Z,6.17
2023-05-14T12:50:48.821Z,6.26
2023-05-14T12:51:50.116Z,6.20
2023-05-14T12:52:48.811Z,3.06
2023-05-14T12:53:48.785Z,2.63
2023-05-14T12:54:48.765Z,2.86
2023-05-14T12:55:48.756Z,4.98
2023-05-14T12:56:48.749Z,5.03
2023-05-14T12:57:48.734Z,5.49
2023-05-14T12:58:48.722Z,4.89
2023-05-14T12:59:48.709Z,2.68
2023-05-14T13:00:48.752Z,3.12
2023-05-14T13:01:48.682Z,5.44
2023-05-14T13:02:48.716Z,4.86
2023-05-14T13:03:48.719Z,4.20
2023-05-14T13:04:48.645Z,4.77
2023-05-14T13:05:48.633Z,4.22
2023-05-14T13:06:48.617Z,4.06
2023-05-14T13:07:48.609Z,4.70
2023-05-14T13:08:48.597Z,4.36
2023-05-14T13:09:48.587Z,4.48
2023-05-14T13:10:48.565Z,5.10
2023-05-14T13:11:48.562Z,5.22
2023-05-14T13:12:48.543Z,4.51
2023-05-14T13:13:48.529Z,4.53
2023-05-14T13:14:48.517Z,3.99
2023-05-14T13:15:48.506Z,3.73
2023-05-14T13:16:48.519Z,3.92
2023-05-14T13:17:48.532Z,4.21
2023-05-14T13:18:48.483Z,4.06
2023-05-14T13:19:48.480Z,4.05
2023-05-14T13:20:48.446Z,3.92
2023-05-14T13:21:48.432Z,3.80